Arthur, Illinois
Current Conditions -  °F | °C
As of 11:53 AM on Thursday 30 Oct 2014 (Local Time) from KMTO Reporting Station
Clear Clear  
Wind Chill: 51°   Ceiling: Unl
Heat Index: 51°   Visibility: 10mi
Dew Point: 36°   Wind: 10mph
Humidity: 56%   Direction: 140°SE
Pressure: 30.13"   Gusts: NA
Location:  39.71°N, 88.47°W
Report Text: KMTO 301653Z AUTO 14009KT 10SM CLR 11/02 A3013 RMK AO2 SLP206 T01060022
Loading
Personal Weather Stations






























Interactive Weather Map
Tropical Storm Tracking
New forecast layout! Learn more

10-Day Weather Forecast

Advertisements
Track Severe Weather on mobile